Nord Glory — 3FIA5 — position and weather

sailwx.info

Track history (hours):
 
Tides and Currents Weather Stations Pressure Air Temp Water Temp Dewpoint Dewpoint Depression Visibility Wind Speed Wind Dir Waves Ship Positions

Nord Glory

Last reported at 2017-Apr-24 22:36 UTC. Time now 2017-Apr-24 23:02 UTC.
Position N 37°09' E 002°56'.

Length 190 m; draft 11.8 m.

Type: Cargo ship. MMSI: 354206000.

Date/timePositionNaut miles runAvg speedWind from/ knotsBaromVisibWave heightAir tempDewpointWater temp
2017-Apr-24 22:36N 37°09' E 002°56'112.3
2017-Apr-24 22:30N 37°09' E 002°54'712.3
2017-Apr-24 21:57N 37°08' E 002°46'612.3
2017-Apr-24 21:30N 37°07' E 002°39'612.3
2017-Apr-24 21:00N 37°06' E 002°31'612.2
2017-Apr-24 20:30N 37°05' E 002°24'612.3
2017-Apr-24 20:00N 37°04' E 002°16'612.2
2017-Apr-24 19:30N 37°03' E 002°09'612.1
2017-Apr-24 19:00N 37°02' E 002°01'612.5
2017-Apr-24 18:30N 37°01' E 001°54'712.6
2017-Apr-24 17:58N 37°00' E 001°45'1412.6
2017-Apr-24 16:53N 36°57' E 001°28'1112.6
2017-Apr-24 15:59N 36°55' E 001°15'812.5
2017-Apr-24 15:22N 36°53' E 001°05'412.6
2017-Apr-24 15:00N 36°52' E 000°60'612.5
2017-Apr-24 14:29N 36°51' E 000°52'1212.3
2017-Apr-24 13:30N 36°50' E 000°37'912.2
2017-Apr-24 12:48N 36°48' E 000°26'412.4
2017-Apr-24 12:30N 36°48' E 000°21'5412.2
2017-Apr-24 08:01N 36°34' W 000°44'012.1
2017-Apr-24 08:00N 36°34' W 000°45'1312.3
2017-Apr-24 06:59N 36°32' W 001°00'4112.0
2017-Apr-24 03:32N 36°26' W 001°51'011.5
2017-Apr-24 03:30N 36°26' W 001°51'1911.5
2017-Apr-24 01:53N 36°23' W 002°14'12911.9
2017-Apr-23 15:04N 36°03' W 004°52'412.0
2017-Apr-23 14:43N 36°03' W 004°57'912.0
2017-Apr-23 14:01N 36°03' W 005°07'510.6
2017-Apr-23 13:31N 36°04' W 005°14'4 8.9
2017-Apr-23 13:01N 36°05' W 005°19'3 5.9
2017-Apr-23 12:30N 36°07' W 005°22'1 1.4
2017-Apr-23 11:59N 36°07' W 005°22'0 0.1
2017-Apr-23 11:29N 36°07' W 005°22'0 0.0
2017-Apr-23 10:59N 36°07' W 005°22'0 0.1
2017-Apr-23 10:26N 36°07' W 005°22'0 0.1
2017-Apr-23 09:59N 36°07' W 005°22'0 0.1
2017-Apr-23 09:29N 36°07' W 005°22'0 0.0
2017-Apr-23 08:59N 36°07' W 005°22'0 0.1
2017-Apr-23 08:29N 36°07' W 005°22'0 0.1
2017-Apr-23 07:59N 36°07' W 005°22'0 0.0
2017-Apr-23 07:30N 36°07' W 005°22'1 1.5
2017-Apr-23 07:00N 36°07' W 005°22'2 4.2
2017-Apr-23 06:30N 36°05' W 005°20'4 6.9
2017-Apr-23 06:00N 36°04' W 005°16'2 4.6
2017-Apr-23 05:29N 36°03' W 005°13'2 4.0
2017-Apr-23 05:00N 36°02' W 005°11'3 6.1
2017-Apr-23 04:30N 36°02' W 005°07'2 2.5
2017-Apr-23 03:29N 36°04' W 005°05'1 1.3
2017-Apr-23 02:41N 36°05' W 005°04'0 1.2
2017-Apr-23 02:26N 36°05' W 005°04'1 1.3
2017-Apr-23 01:53N 36°06' W 005°04'0 1.0
2017-Apr-23 01:29N 36°06' W 005°03'0 0.8
2017-Apr-23 01:00N 36°06' W 005°03'5 1.4
2017-Apr-22 21:34N 36°09' W 004°58'0 1.7
2017-Apr-22 21:28N 36°09' W 004°58'0 0.5
2017-Apr-22 20:53N 36°09' W 004°58'2 1.6
2017-Apr-22 19:28N 36°08' W 005°00'1 1.8
2017-Apr-22 19:00N 36°09' W 004°59'1 1.8
2017-Apr-22 18:24N 36°09' W 004°58'1 1.8
2017-Apr-22 17:53N 36°09' W 004°57'1 1.8
2017-Apr-22 17:19N 36°10' W 004°56'4 3.9
2017-Apr-22 16:16N 36°07' W 004°60'2 7.6
2017-Apr-22 15:58N 36°06' W 005°02'4 7.4
2017-Apr-22 15:28N 36°04' W 005°06'3 7.2
2017-Apr-22 15:00N 36°02' W 005°10'4 7.2
2017-Apr-22 14:30N 36°01' W 005°14'7 7.2
2017-Apr-22 13:30N 35°59' W 005°22'4 7.1
2017-Apr-22 13:00N 35°58' W 005°27'3 6.8
2017-Apr-22 12:30N 35°57' W 005°31'3 6.4
2017-Apr-22 12:00N 35°56' W 005°34'3 6.7
2017-Apr-22 11:30N 35°56' W 005°38'3 6.6
2017-Apr-22 11:00N 35°56' W 005°42'4 6.7
2017-Apr-22 10:29N 35°55' W 005°47'  
2017-Apr-19 08:48N 30°14' W 011°58'3 9.8
2017-Apr-19 08:29N 30°11' W 011°60'5 9.7
2017-Apr-19 08:00N 30°07' W 012°03'5 9.5
2017-Apr-19 07:30N 30°03' W 012°05'29 9.4
2017-Apr-19 04:27N 29°38' W 012°22'4 9.4
2017-Apr-19 04:00N 29°34' W 012°25'6 9.4
2017-Apr-19 03:20N 29°29' W 012°29'3 9.5
2017-Apr-19 03:01N 29°26' W 012°31'5 9.3
2017-Apr-19 02:30N 29°22' W 012°33'4 9.0
2017-Apr-19 02:01N 29°19' W 012°36'4 8.9
2017-Apr-19 01:31N 29°15' W 012°39'4 9.0
2017-Apr-19 01:00N 29°11' W 012°41'5 9.4
2017-Apr-19 00:31N 29°07' W 012°44'5 9.6
2017-Apr-19 00:01N 29°03' W 012°47'5 9.7
2017-Apr-18 23:31N 28°59' W 012°50'5 9.8
2017-Apr-18 23:01N 28°54' W 012°52'5 9.8
2017-Apr-18 22:31N 28°50' W 012°56'510.1
2017-Apr-18 22:01N 28°46' W 012°58'6 9.9
2017-Apr-18 21:25N 28°41' W 013°02'4 9.7
2017-Apr-18 20:59N 28°37' W 013°04'5 9.9
2017-Apr-18 20:30N 28°33' W 013°07'510.2
2017-Apr-18 20:00N 28°29' W 013°10'1010.3
2017-Apr-18 19:00N 28°20' W 013°16'510.4
2017-Apr-18 18:31N 28°16' W 013°19'510.8
2017-Apr-18 18:00N 28°11' W 013°22'611.0
2017-Apr-18 17:30N 28°06' W 013°26'611.2
2017-Apr-18 17:00N 28°02' W 013°29'510.9
2017-Apr-18 16:31N 27°58' W 013°33'611.1
2017-Apr-18 16:01N 27°54' W 013°38'611.3
2017-Apr-18 15:31N 27°50' W 013°42'611.4
2017-Apr-18 15:01N 27°46' W 013°47'611.2
2017-Apr-18 14:31N 27°42' W 013°51'1111.0
2017-Apr-18 13:31N 27°34' W 014°00'611.0
2017-Apr-18 13:01N 27°30' W 014°05'611.2
2017-Apr-18 12:31N 27°27' W 014°09'611.1
2017-Apr-18 12:01N 27°23' W 014°14'611.1
2017-Apr-18 11:30N 27°19' W 014°18'511.0
2017-Apr-18 11:01N 27°15' W 014°22'510.9
2017-Apr-18 10:31N 27°11' W 014°27'510.9
2017-Apr-18 10:01N 27°08' W 014°32'510.9
2017-Apr-18 09:31N 27°04' W 014°36'611.1
2017-Apr-18 09:01N 27°00' W 014°41'710.8
2017-Apr-18 08:23N 26°55' W 014°46'610.8
2017-Apr-18 07:52N 26°51' W 014°50'411.0
2017-Apr-18 07:30N 26°48' W 014°54'611.4
2017-Apr-18 07:01N 26°45' W 014°58'611.3
2017-Apr-18 06:30N 26°41' W 015°03'  
Track history (hours):
 
Tides and Currents Weather Stations Pressure Air Temp Water Temp Dewpoint Dewpoint Depression Visibility Wind Speed Wind Dir Waves Ship Positions

Nord Glory

Last reported at 2017-Apr-24 22:36 UTC. Time now 2017-Apr-24 23:02 UTC.
Position N 37°09' E 002°56'.

Length 190 m; draft 11.8 m.

Type: Cargo ship. MMSI: 354206000.

Date/timePositionNaut miles runAvg speedWind from/ knotsBaromVisibWave heightAir tempDewpointWater temp
2017-Apr-24 22:36N 37°09' E 002°56'112.3
2017-Apr-24 22:30N 37°09' E 002°54'712.3
2017-Apr-24 21:57N 37°08' E 002°46'612.3
2017-Apr-24 21:30N 37°07' E 002°39'612.3
2017-Apr-24 21:00N 37°06' E 002°31'612.2
2017-Apr-24 20:30N 37°05' E 002°24'612.3
2017-Apr-24 20:00N 37°04' E 002°16'612.2
2017-Apr-24 19:30N 37°03' E 002°09'612.1
2017-Apr-24 19:00N 37°02' E 002°01'612.5
2017-Apr-24 18:30N 37°01' E 001°54'712.6
2017-Apr-24 17:58N 37°00' E 001°45'1412.6
2017-Apr-24 16:53N 36°57' E 001°28'1112.6
2017-Apr-24 15:59N 36°55' E 001°15'812.5
2017-Apr-24 15:22N 36°53' E 001°05'412.6
2017-Apr-24 15:00N 36°52' E 000°60'612.5
2017-Apr-24 14:29N 36°51' E 000°52'1212.3
2017-Apr-24 13:30N 36°50' E 000°37'912.2
2017-Apr-24 12:48N 36°48' E 000°26'412.4
2017-Apr-24 12:30N 36°48' E 000°21'5412.2
2017-Apr-24 08:01N 36°34' W 000°44'012.1
2017-Apr-24 08:00N 36°34' W 000°45'1312.3
2017-Apr-24 06:59N 36°32' W 001°00'4112.0
2017-Apr-24 03:32N 36°26' W 001°51'011.5
2017-Apr-24 03:30N 36°26' W 001°51'1911.5
2017-Apr-24 01:53N 36°23' W 002°14'12911.9
2017-Apr-23 15:04N 36°03' W 004°52'412.0
2017-Apr-23 14:43N 36°03' W 004°57'912.0
2017-Apr-23 14:01N 36°03' W 005°07'510.6
2017-Apr-23 13:31N 36°04' W 005°14'4 8.9
2017-Apr-23 13:01N 36°05' W 005°19'3 5.9
2017-Apr-23 12:30N 36°07' W 005°22'1 1.4
2017-Apr-23 11:59N 36°07' W 005°22'0 0.1
2017-Apr-23 11:29N 36°07' W 005°22'0 0.0
2017-Apr-23 10:59N 36°07' W 005°22'0 0.1
2017-Apr-23 10:26N 36°07' W 005°22'0 0.1
2017-Apr-23 09:59N 36°07' W 005°22'0 0.1
2017-Apr-23 09:29N 36°07' W 005°22'0 0.0
2017-Apr-23 08:59N 36°07' W 005°22'0 0.1
2017-Apr-23 08:29N 36°07' W 005°22'0 0.1
2017-Apr-23 07:59N 36°07' W 005°22'0 0.0
2017-Apr-23 07:30N 36°07' W 005°22'1 1.5
2017-Apr-23 07:00N 36°07' W 005°22'2 4.2
2017-Apr-23 06:30N 36°05' W 005°20'4 6.9
2017-Apr-23 06:00N 36°04' W 005°16'2 4.6
2017-Apr-23 05:29N 36°03' W 005°13'2 4.0
2017-Apr-23 05:00N 36°02' W 005°11'3 6.1
2017-Apr-23 04:30N 36°02' W 005°07'2 2.5
2017-Apr-23 03:29N 36°04' W 005°05'1 1.3
2017-Apr-23 02:41N 36°05' W 005°04'0 1.2
2017-Apr-23 02:26N 36°05' W 005°04'1 1.3
2017-Apr-23 01:53N 36°06' W 005°04'0 1.0
2017-Apr-23 01:29N 36°06' W 005°03'0 0.8
2017-Apr-23 01:00N 36°06' W 005°03'5 1.4
2017-Apr-22 21:34N 36°09' W 004°58'0 1.7
2017-Apr-22 21:28N 36°09' W 004°58'0 0.5
2017-Apr-22 20:53N 36°09' W 004°58'2 1.6
2017-Apr-22 19:28N 36°08' W 005°00'1 1.8
2017-Apr-22 19:00N 36°09' W 004°59'1 1.8
2017-Apr-22 18:24N 36°09' W 004°58'1 1.8
2017-Apr-22 17:53N 36°09' W 004°57'1 1.8
2017-Apr-22 17:19N 36°10' W 004°56'4 3.9
2017-Apr-22 16:16N 36°07' W 004°60'2 7.6
2017-Apr-22 15:58N 36°06' W 005°02'4 7.4
2017-Apr-22 15:28N 36°04' W 005°06'3 7.2
2017-Apr-22 15:00N 36°02' W 005°10'4 7.2
2017-Apr-22 14:30N 36°01' W 005°14'7 7.2
2017-Apr-22 13:30N 35°59' W 005°22'4 7.1
2017-Apr-22 13:00N 35°58' W 005°27'3 6.8
2017-Apr-22 12:30N 35°57' W 005°31'3 6.4
2017-Apr-22 12:00N 35°56' W 005°34'3 6.7
2017-Apr-22 11:30N 35°56' W 005°38'3 6.6
2017-Apr-22 11:00N 35°56' W 005°42'4 6.7
2017-Apr-22 10:29N 35°55' W 005°47'  
2017-Apr-19 08:48N 30°14' W 011°58'3 9.8
2017-Apr-19 08:29N 30°11' W 011°60'5 9.7
2017-Apr-19 08:00N 30°07' W 012°03'5 9.5
2017-Apr-19 07:30N 30°03' W 012°05'29 9.4
2017-Apr-19 04:27N 29°38' W 012°22'4 9.4
2017-Apr-19 04:00N 29°34' W 012°25'6 9.4
2017-Apr-19 03:20N 29°29' W 012°29'3 9.5
2017-Apr-19 03:01N 29°26' W 012°31'5 9.3
2017-Apr-19 02:30N 29°22' W 012°33'4 9.0
2017-Apr-19 02:01N 29°19' W 012°36'4 8.9
2017-Apr-19 01:31N 29°15' W 012°39'4 9.0
2017-Apr-19 01:00N 29°11' W 012°41'5 9.4
2017-Apr-19 00:31N 29°07' W 012°44'5 9.6
2017-Apr-19 00:01N 29°03' W 012°47'5 9.7
2017-Apr-18 23:31N 28°59' W 012°50'5 9.8
2017-Apr-18 23:01N 28°54' W 012°52'5 9.8
2017-Apr-18 22:31N 28°50' W 012°56'510.1
2017-Apr-18 22:01N 28°46' W 012°58'6 9.9
2017-Apr-18 21:25N 28°41' W 013°02'4 9.7
2017-Apr-18 20:59N 28°37' W 013°04'5 9.9
2017-Apr-18 20:30N 28°33' W 013°07'510.2
2017-Apr-18 20:00N 28°29' W 013°10'1010.3
2017-Apr-18 19:00N 28°20' W 013°16'510.4
2017-Apr-18 18:31N 28°16' W 013°19'510.8
2017-Apr-18 18:00N 28°11' W 013°22'611.0
2017-Apr-18 17:30N 28°06' W 013°26'611.2
2017-Apr-18 17:00N 28°02' W 013°29'510.9
2017-Apr-18 16:31N 27°58' W 013°33'611.1
2017-Apr-18 16:01N 27°54' W 013°38'611.3
2017-Apr-18 15:31N 27°50' W 013°42'611.4
2017-Apr-18 15:01N 27°46' W 013°47'611.2
2017-Apr-18 14:31N 27°42' W 013°51'1111.0
2017-Apr-18 13:31N 27°34' W 014°00'611.0
2017-Apr-18 13:01N 27°30' W 014°05'611.2
2017-Apr-18 12:31N 27°27' W 014°09'611.1
2017-Apr-18 12:01N 27°23' W 014°14'611.1
2017-Apr-18 11:30N 27°19' W 014°18'511.0
2017-Apr-18 11:01N 27°15' W 014°22'510.9
2017-Apr-18 10:31N 27°11' W 014°27'510.9
2017-Apr-18 10:01N 27°08' W 014°32'510.9
2017-Apr-18 09:31N 27°04' W 014°36'611.1
2017-Apr-18 09:01N 27°00' W 014°41'710.8
2017-Apr-18 08:23N 26°55' W 014°46'610.8
2017-Apr-18 07:52N 26°51' W 014°50'411.0
2017-Apr-18 07:30N 26°48' W 014°54'611.4
2017-Apr-18 07:01N 26°45' W 014°58'611.3
2017-Apr-18 06:30N 26°41' W 015°03'  

Dump ship's entire track history